createdAt,value
2018-03-07T00:00:45.215Z,0.40
2018-03-07T00:03:12.719Z,0.40
2018-03-07T00:05:40.223Z,0.40
2018-03-07T00:08:08.504Z,0.50
2018-03-07T00:10:36.783Z,0.40
2018-03-07T00:13:05.063Z,0.40
2018-03-07T00:15:32.563Z,0.40
2018-03-07T00:18:00.059Z,0.40
2018-03-07T00:20:28.338Z,0.30
2018-03-07T00:22:56.607Z,0.30
2018-03-07T00:25:24.895Z,0.30
2018-03-07T00:27:53.177Z,0.30
2018-03-07T00:30:21.460Z,0.30
2018-03-07T00:32:48.986Z,0.30
2018-03-07T00:35:16.488Z,0.30
2018-03-07T00:37:43.996Z,0.30
2018-03-07T00:40:11.613Z,0.30
2018-03-07T00:42:39.122Z,0.30
2018-03-07T00:45:06.635Z,0.40
2018-03-07T00:47:34.138Z,0.50
2018-03-07T00:50:01.663Z,0.50
2018-03-07T00:52:29.164Z,0.50
2018-03-07T00:54:57.431Z,0.50
2018-03-07T00:57:25.015Z,0.50
2018-03-07T00:59:53.283Z,0.50
2018-03-07T01:02:21.568Z,0.50
2018-03-07T01:04:49.851Z,0.50
2018-03-07T01:07:17.439Z,0.50
2018-03-07T01:09:44.947Z,0.50
2018-03-07T01:12:12.463Z,0.50
2018-03-07T01:14:39.959Z,0.50
2018-03-07T01:17:07.451Z,0.50
2018-03-07T01:19:34.976Z,0.50
2018-03-07T01:22:02.471Z,0.50
2018-03-07T01:24:30.008Z,0.50
2018-03-07T01:26:58.290Z,0.40
2018-03-07T01:29:26.542Z,0.40
2018-03-07T01:31:54.051Z,0.30
2018-03-07T01:34:21.847Z,0.30
2018-03-07T01:36:49.339Z,0.30
2018-03-07T01:39:17.609Z,0.30
2018-03-07T01:41:45.881Z,0.30
2018-03-07T01:44:13.403Z,0.30
2018-03-07T01:46:40.911Z,0.40
2018-03-07T01:49:09.167Z,0.40
2018-03-07T01:51:48.615Z,0.40
2018-03-07T01:54:16.135Z,0.50
2018-03-07T01:56:43.639Z,0.50
2018-03-07T01:59:11.907Z,0.60
2018-03-07T02:01:39.423Z,0.60
2018-03-07T02:04:06.923Z,0.80
2018-03-07T02:06:34.435Z,0.90
2018-03-07T02:09:01.949Z,0.90
2018-03-07T02:11:30.239Z,1.10
2018-03-07T02:13:58.519Z,1.10
2018-03-07T02:16:26.803Z,1.10
2018-03-07T02:18:54.351Z,1.10
2018-03-07T02:21:22.633Z,1.20
2018-03-07T02:23:50.148Z,1.20
2018-03-07T02:26:17.651Z,1.20
2018-03-07T02:28:45.152Z,1.30
2018-03-07T02:31:12.681Z,1.30
2018-03-07T02:33:40.195Z,1.30
2018-03-07T02:49:33.913Z,2.10
2018-03-07T02:52:01.432Z,2.10
2018-03-07T02:54:29.700Z,2.30
2018-03-07T02:56:57.983Z,2.20
2018-03-07T02:59:26.255Z,2.10
2018-03-07T03:01:54.532Z,2.10
2018-03-07T03:04:22.806Z,2.10
2018-03-07T03:06:50.376Z,2.00
2018-03-07T03:09:18.636Z,2.00
2018-03-07T03:11:46.138Z,2.10
2018-03-07T03:14:13.673Z,2.00
2018-03-07T03:16:41.939Z,2.00
2018-03-07T03:19:10.199Z,2.00
2018-03-07T03:21:38.495Z,2.00
2018-03-07T03:24:06.787Z,2.00
2018-03-07T03:26:34.307Z,2.00
2018-03-07T03:29:01.821Z,2.00
2018-03-07T03:31:29.349Z,2.00
2018-03-07T03:33:57.630Z,2.00
2018-03-07T03:36:25.903Z,2.00
2018-03-07T03:38:54.172Z,2.10
2018-03-07T03:41:22.440Z,2.10
2018-03-07T03:43:49.936Z,2.10
2018-03-07T03:46:17.438Z,2.10
2018-03-07T03:48:44.934Z,2.20
2018-03-07T03:51:13.214Z,2.40
2018-03-07T03:53:41.495Z,2.60
2018-03-07T03:56:09.791Z,2.70
2018-03-07T03:58:37.330Z,2.70
2018-03-07T04:01:05.591Z,2.90
2018-03-07T04:03:33.851Z,3.00
2018-03-07T04:06:01.374Z,3.00
2018-03-07T04:08:28.911Z,3.10
2018-03-07T04:10:56.406Z,3.20
2018-03-07T04:13:23.898Z,3.20
2018-03-07T04:15:52.172Z,3.10
2018-03-07T04:18:19.695Z,3.10
2018-03-07T04:20:47.231Z,3.00
2018-03-07T04:23:14.722Z,2.90
2018-03-07T04:25:42.231Z,2.80
2018-03-07T04:28:09.739Z,2.70
2018-03-07T04:30:37.243Z,2.70
2018-03-07T04:33:05.495Z,2.60
2018-03-07T04:35:32.995Z,2.60
2018-03-07T04:38:00.492Z,2.50
2018-03-07T04:40:28.117Z,2.50
2018-03-07T04:42:55.619Z,2.40
2018-03-07T04:45:23.114Z,2.40
2018-03-07T04:47:50.623Z,2.30
2018-03-07T04:50:18.148Z,2.30
2018-03-07T04:52:45.648Z,2.30
2018-03-07T04:55:13.150Z,2.30
2018-03-07T04:57:41.410Z,2.20
2018-03-07T05:00:09.695Z,2.20
2018-03-07T05:02:38.003Z,2.20
2018-03-07T05:05:06.251Z,2.10
2018-03-07T05:07:34.535Z,2.10
2018-03-07T05:10:02.031Z,2.10
2018-03-07T05:12:29.526Z,2.00
2018-03-07T05:14:57.795Z,2.00
2018-03-07T05:17:25.287Z,2.00
2018-03-07T05:19:52.790Z,2.00
2018-03-07T05:22:20.295Z,1.90
2018-03-07T05:24:48.567Z,1.90
2018-03-07T05:27:16.847Z,1.80
2018-03-07T05:29:45.127Z,1.80
2018-03-07T05:32:13.395Z,1.70
2018-03-07T05:34:41.662Z,1.80
2018-03-07T05:37:09.940Z,1.80
2018-03-07T05:39:38.222Z,1.80
2018-03-07T05:42:06.494Z,1.80
2018-03-07T05:44:34.779Z,1.90
2018-03-07T05:47:03.048Z,1.90
2018-03-07T05:49:31.319Z,1.90
2018-03-07T05:51:59.581Z,1.90
2018-03-07T05:54:27.079Z,1.90
2018-03-07T05:56:54.623Z,1.90
2018-03-07T05:59:22.892Z,1.90
2018-03-07T06:01:51.166Z,1.90
2018-03-07T06:04:19.431Z,1.90
2018-03-07T06:06:46.932Z,1.90
2018-03-07T06:09:14.442Z,2.00
2018-03-07T06:11:41.955Z,2.00
2018-03-07T06:14:09.451Z,2.10
2018-03-07T06:16:36.956Z,2.10
2018-03-07T06:19:04.459Z,2.10
2018-03-07T06:21:31.964Z,2.20
2018-03-07T06:24:00.334Z,2.20
2018-03-07T06:26:28.606Z,2.20
2018-03-07T06:28:56.875Z,2.10
2018-03-07T06:31:24.397Z,2.10
2018-03-07T06:33:51.907Z,2.10
2018-03-07T06:36:20.171Z,2.20
2018-03-07T06:38:47.668Z,2.10
2018-03-07T06:41:15.191Z,2.20
2018-03-07T06:43:43.476Z,2.20
2018-03-07T06:46:11.743Z,2.30
2018-03-07T06:48:40.169Z,2.30
2018-03-07T06:51:07.692Z,2.20
2018-03-07T06:53:35.978Z,2.30
2018-03-07T06:56:03.486Z,2.30
2018-03-07T06:58:30.985Z,2.30
2018-03-07T07:00:59.267Z,2.30
2018-03-07T07:03:27.535Z,2.30
2018-03-07T07:05:55.799Z,2.40
2018-03-07T07:08:23.311Z,2.40
2018-03-07T07:10:50.827Z,2.40
2018-03-07T07:13:19.094Z,2.50
2018-03-07T07:15:46.588Z,2.50
2018-03-07T07:18:14.087Z,2.60
2018-03-07T07:20:41.604Z,2.60
2018-03-07T07:23:09.111Z,2.70
2018-03-07T07:25:36.615Z,2.80
2018-03-07T07:28:04.131Z,2.80
2018-03-07T07:30:31.647Z,2.80
2018-03-07T07:32:59.155Z,2.90
2018-03-07T07:35:26.684Z,2.90
2018-03-07T07:37:54.199Z,3.00
2018-03-07T07:40:22.548Z,3.10
2018-03-07T07:42:50.058Z,3.10
2018-03-07T07:45:17.559Z,3.20
2018-03-07T07:47:46.578Z,3.30
2018-03-07T07:50:14.870Z,3.40
2018-03-07T07:52:42.371Z,3.40
2018-03-07T07:55:09.920Z,3.40
2018-03-07T07:57:37.466Z,3.50
2018-03-07T08:00:05.695Z,3.70
2018-03-07T08:02:33.196Z,3.70
2018-03-07T08:05:00.756Z,4.10
2018-03-07T08:07:28.284Z,4.20
2018-03-07T08:09:56.548Z,4.40
2018-03-07T08:12:24.071Z,4.30
2018-03-07T08:14:51.586Z,4.50
2018-03-07T08:17:19.887Z,4.70
2018-03-07T08:19:47.406Z,4.60
2018-03-07T08:22:15.691Z,4.80
2018-03-07T08:24:43.955Z,4.90
2018-03-07T08:27:12.239Z,5.00
2018-03-07T08:29:40.521Z,5.10
2018-03-07T08:32:08.783Z,5.10
2018-03-07T08:34:36.295Z,5.10
2018-03-07T08:37:03.795Z,5.20
2018-03-07T08:39:31.304Z,5.30
2018-03-07T08:41:58.803Z,5.40
2018-03-07T08:44:26.338Z,5.60
2018-03-07T08:46:53.984Z,5.70
2018-03-07T08:49:21.644Z,5.80
2018-03-07T08:51:49.185Z,5.80
2018-03-07T08:54:16.728Z,5.80
2018-03-07T08:56:45.068Z,5.90
2018-03-07T08:59:12.702Z,5.90
2018-03-07T09:01:40.238Z,5.90
2018-03-07T09:04:07.823Z,6.00
2018-03-07T09:06:35.357Z,6.10
2018-03-07T09:09:03.722Z,6.50
2018-03-07T09:11:32.143Z,6.70
2018-03-07T09:13:59.711Z,6.70
2018-03-07T09:16:27.276Z,6.90
2018-03-07T09:18:54.924Z,7.00
2018-03-07T09:21:22.680Z,7.10
2018-03-07T09:23:50.238Z,7.30
2018-03-07T09:26:17.906Z,7.40
2018-03-07T09:28:45.478Z,7.60
2018-03-07T09:31:13.091Z,7.80
2018-03-07T09:33:40.661Z,7.90
2018-03-07T09:36:09.074Z,8.20
2018-03-07T09:38:36.618Z,8.20
2018-03-07T09:41:04.172Z,8.20
2018-03-07T09:43:31.723Z,8.20
2018-03-07T09:46:00.103Z,8.50
2018-03-07T09:48:27.652Z,8.50
2018-03-07T09:50:56.045Z,8.90
2018-03-07T09:53:23.582Z,8.90
2018-03-07T09:55:51.941Z,9.20
2018-03-07T09:58:20.320Z,9.30
2018-03-07T10:00:47.859Z,9.20
2018-03-07T10:03:15.465Z,9.30
2018-03-07T10:05:43.858Z,9.30
2018-03-07T10:08:12.157Z,9.30
2018-03-07T10:10:39.815Z,9.30
2018-03-07T10:13:07.360Z,9.40
2018-03-07T10:15:34.924Z,9.40
2018-03-07T10:18:02.449Z,9.40
2018-03-07T10:20:30.063Z,9.40
2018-03-07T10:22:57.634Z,9.40
2018-03-07T10:25:25.195Z,9.40
2018-03-07T10:27:52.773Z,9.30
2018-03-07T10:30:20.361Z,9.30
2018-03-07T10:32:48.651Z,9.10
2018-03-07T10:35:17.055Z,9.20
2018-03-07T10:37:44.670Z,9.10
2018-03-07T10:40:12.986Z,9.10
2018-03-07T10:42:40.528Z,9.10
2018-03-07T10:45:08.116Z,9.10
2018-03-07T10:47:35.682Z,9.00
2018-03-07T10:50:03.228Z,9.00
2018-03-07T10:52:30.778Z,9.10
2018-03-07T10:54:58.323Z,9.10
2018-03-07T10:57:26.592Z,9.30
2018-03-07T10:59:54.902Z,9.40
2018-03-07T11:02:22.471Z,9.40
2018-03-07T11:04:50.032Z,9.70
2018-03-07T11:07:17.701Z,9.90
2018-03-07T11:09:45.278Z,10.00
2018-03-07T11:12:12.848Z,10.10
2018-03-07T11:14:40.509Z,10.10
2018-03-07T11:17:08.322Z,10.20
2018-03-07T11:19:35.879Z,10.20
2018-03-07T11:22:03.419Z,10.10
2018-03-07T11:24:31.752Z,10.20
2018-03-07T11:26:59.340Z,10.20
2018-03-07T11:29:27.674Z,10.40
2018-03-07T11:31:55.250Z,10.40
2018-03-07T11:34:22.889Z,10.50
2018-03-07T11:36:50.461Z,10.50
2018-03-07T11:39:18.034Z,10.50
2018-03-07T11:41:45.580Z,10.40
2018-03-07T11:44:13.148Z,10.40
2018-03-07T11:46:40.679Z,10.40
2018-03-07T11:49:08.233Z,10.50
2018-03-07T11:51:35.770Z,10.50
2018-03-07T11:54:04.081Z,10.60
2018-03-07T11:56:31.630Z,10.60
2018-03-07T11:58:59.160Z,10.60
2018-03-07T12:01:27.472Z,10.70
2018-03-07T12:03:55.009Z,10.70
2018-03-07T12:06:23.319Z,11.10
2018-03-07T12:08:50.856Z,11.00
2018-03-07T12:11:18.404Z,11.50
2018-03-07T12:13:45.985Z,11.70
2018-03-07T12:16:13.515Z,11.60
2018-03-07T12:18:41.838Z,11.60
2018-03-07T12:21:09.359Z,11.60
2018-03-07T12:23:36.903Z,11.30
2018-03-07T12:26:05.176Z,11.10
2018-03-07T12:28:33.496Z,10.90
2018-03-07T12:31:01.020Z,10.90
2018-03-07T12:33:29.320Z,10.80
2018-03-07T12:35:56.969Z,10.80
2018-03-07T12:38:25.281Z,10.80
2018-03-07T12:40:52.797Z,10.80
2018-03-07T12:43:21.072Z,10.80
2018-03-07T12:45:49.431Z,10.80
2018-03-07T12:48:17.727Z,11.00
2018-03-07T12:50:46.080Z,11.30
2018-03-07T12:53:13.584Z,11.30
2018-03-07T12:55:41.096Z,11.50
2018-03-07T12:58:08.663Z,11.70
2018-03-07T13:00:36.230Z,11.80
2018-03-07T13:03:03.945Z,11.90
2018-03-07T13:05:31.519Z,12.00
2018-03-07T13:07:59.155Z,12.20
2018-03-07T13:10:26.729Z,12.50
2018-03-07T13:12:54.310Z,12.90
2018-03-07T13:15:21.863Z,13.10
2018-03-07T13:17:49.384Z,13.30
2018-03-07T13:20:16.886Z,13.60
2018-03-07T13:22:44.394Z,13.70
2018-03-07T13:25:11.923Z,13.90
2018-03-07T13:27:40.207Z,13.90
2018-03-07T13:30:07.736Z,13.90
2018-03-07T13:32:35.243Z,13.90
2018-03-07T13:35:03.544Z,13.60
2018-03-07T13:37:31.827Z,13.50
2018-03-07T13:39:59.351Z,13.40
2018-03-07T13:42:27.623Z,13.00
2018-03-07T13:44:55.935Z,12.60
2018-03-07T13:47:23.456Z,12.50
2018-03-07T13:49:51.774Z,12.10
2018-03-07T13:52:19.279Z,12.10
2018-03-07T13:54:46.800Z,11.90
2018-03-07T13:57:14.303Z,11.70
2018-03-07T13:59:42.588Z,11.50
2018-03-07T14:02:10.878Z,11.40
2018-03-07T14:04:38.387Z,11.40
2018-03-07T14:07:06.021Z,11.40
2018-03-07T14:09:33.526Z,11.40
2018-03-07T14:12:01.033Z,11.40
2018-03-07T14:14:28.540Z,11.50
2018-03-07T14:16:56.049Z,11.80
2018-03-07T14:19:23.559Z,11.90
2018-03-07T14:21:51.069Z,12.00
2018-03-07T14:24:18.611Z,12.30
2018-03-07T14:26:46.131Z,12.80
2018-03-07T14:29:13.635Z,13.10
2018-03-07T14:31:41.179Z,13.30
2018-03-07T14:34:08.716Z,13.50
2018-03-07T14:36:37.012Z,14.00
2018-03-07T14:39:05.299Z,14.90
2018-03-07T14:41:32.840Z,14.90
2018-03-07T14:44:01.115Z,18.20
2018-03-07T14:46:29.387Z,19.00
2018-03-07T14:48:57.049Z,19.00
2018-03-07T14:51:25.362Z,19.70
2018-03-07T14:53:52.863Z,19.60
2018-03-07T14:56:20.395Z,20.10
2018-03-07T14:58:47.956Z,20.70
2018-03-07T15:01:15.461Z,21.60
2018-03-07T15:03:43.007Z,22.30
2018-03-07T15:06:10.587Z,22.90
2018-03-07T15:08:38.900Z,23.30
2018-03-07T15:11:06.398Z,23.30
2018-03-07T15:13:33.918Z,23.60
2018-03-07T15:16:01.444Z,23.50
2018-03-07T15:18:29.761Z,22.60
2018-03-07T15:20:57.258Z,22.60
2018-03-07T15:23:25.806Z,23.10
2018-03-07T15:25:53.527Z,23.10
2018-03-07T15:28:21.791Z,22.80
2018-03-07T15:30:49.350Z,22.80
2018-03-07T15:33:16.883Z,21.40
2018-03-07T15:35:44.450Z,20.00
2018-03-07T15:38:12.011Z,18.70
2018-03-07T15:40:39.556Z,17.60
2018-03-07T15:43:07.072Z,16.70
2018-03-07T15:45:34.607Z,16.00
2018-03-07T15:48:02.105Z,15.30
2018-03-07T15:50:29.623Z,14.80
2018-03-07T15:52:57.135Z,14.30
2018-03-07T15:55:24.743Z,13.80
2018-03-07T15:57:52.249Z,13.40
2018-03-07T16:00:19.775Z,12.90
2018-03-07T16:02:48.082Z,12.10
2018-03-07T16:05:15.576Z,12.10
2018-03-07T16:07:43.096Z,11.80
2018-03-07T16:10:10.652Z,11.50
2018-03-07T16:12:38.218Z,11.30
2018-03-07T16:15:05.743Z,11.10
2018-03-07T16:17:34.062Z,10.70
2018-03-07T16:20:01.583Z,10.70
2018-03-07T16:22:29.859Z,10.40
2018-03-07T16:24:57.382Z,10.40
2018-03-07T16:27:24.957Z,10.20
2018-03-07T16:29:52.475Z,10.10
2018-03-07T16:32:20.020Z,9.90
2018-03-07T16:34:47.519Z,9.80
2018-03-07T16:37:15.015Z,9.70
2018-03-07T16:39:43.282Z,9.40
2018-03-07T16:42:11.543Z,9.30
2018-03-07T16:44:40.569Z,9.10
2018-03-07T16:47:08.067Z,9.10
2018-03-07T16:49:35.563Z,9.00
2018-03-07T16:52:03.827Z,8.70
2018-03-07T16:54:31.442Z,8.60
2018-03-07T16:56:59.222Z,8.50
2018-03-07T16:59:27.540Z,8.40
2018-03-07T17:01:55.816Z,8.10
2018-03-07T17:04:23.427Z,8.00
2018-03-07T17:06:50.927Z,7.90
2018-03-07T17:09:18.432Z,7.80
2018-03-07T17:11:46.060Z,7.70
2018-03-07T17:14:14.323Z,7.50
2018-03-07T17:16:41.937Z,7.40
2018-03-07T17:19:09.459Z,7.40
2018-03-07T17:21:37.742Z,7.20
2018-03-07T17:24:06.021Z,7.20
2018-03-07T17:26:34.287Z,7.20
2018-03-07T17:29:02.592Z,7.10
2018-03-07T17:31:30.095Z,7.10
2018-03-07T17:33:57.612Z,7.10
2018-03-07T17:36:25.147Z,7.00
2018-03-07T17:38:52.691Z,6.80
2018-03-07T17:41:20.212Z,6.70
2018-03-07T17:43:47.700Z,6.50
2018-03-07T17:46:15.191Z,6.40
2018-03-07T17:48:43.451Z,6.30
2018-03-07T17:51:11.735Z,6.30
2018-03-07T17:53:40.257Z,6.20
2018-03-07T17:56:07.843Z,6.20
2018-03-07T17:58:35.323Z,6.20
2018-03-07T18:01:03.612Z,6.20
2018-03-07T18:03:31.875Z,6.30
2018-03-07T18:05:59.370Z,6.30
2018-03-07T18:08:26.927Z,6.30
2018-03-07T18:10:54.435Z,6.20
2018-03-07T18:13:22.007Z,6.10
2018-03-07T18:15:49.599Z,6.00
2018-03-07T18:18:17.120Z,5.90
2018-03-07T18:20:44.630Z,6.00
2018-03-07T18:23:12.152Z,6.00
2018-03-07T18:25:40.423Z,6.00
2018-03-07T18:28:07.960Z,5.90
2018-03-07T18:30:35.495Z,6.00
2018-03-07T18:33:03.001Z,6.00
2018-03-07T18:35:30.511Z,6.00
2018-03-07T18:37:58.026Z,6.00
2018-03-07T18:40:26.315Z,5.90
2018-03-07T18:42:54.578Z,5.90
2018-03-07T18:45:22.860Z,6.10
2018-03-07T18:47:51.139Z,6.20
2018-03-07T18:50:19.408Z,6.20
2018-03-07T18:52:47.690Z,6.20
2018-03-07T18:55:15.966Z,6.30
2018-03-07T18:57:44.235Z,6.20
2018-03-07T19:00:12.496Z,6.20
2018-03-07T19:02:39.991Z,6.20
2018-03-07T19:05:07.491Z,6.10
2018-03-07T19:07:35.007Z,6.10
2018-03-07T19:10:02.512Z,6.00
2018-03-07T19:12:30.055Z,5.90
2018-03-07T19:14:57.548Z,6.00
2018-03-07T19:17:25.069Z,5.90
2018-03-07T19:19:52.566Z,5.90
2018-03-07T19:22:20.064Z,5.90
2018-03-07T19:24:47.579Z,5.90
2018-03-07T19:27:16.581Z,5.70
2018-03-07T19:29:44.077Z,5.80
2018-03-07T19:32:11.588Z,5.70
2018-03-07T19:34:40.608Z,5.70
2018-03-07T19:37:08.868Z,5.60
2018-03-07T19:39:36.368Z,5.60
2018-03-07T19:42:03.884Z,5.60
2018-03-07T19:44:32.902Z,5.50
2018-03-07T19:47:01.252Z,5.50
2018-03-07T19:49:28.800Z,5.50
2018-03-07T19:51:56.292Z,5.50
2018-03-07T19:54:24.639Z,5.40
2018-03-07T19:56:52.946Z,5.40
2018-03-07T19:59:20.480Z,5.40
2018-03-07T20:01:48.015Z,5.40
2018-03-07T20:04:15.579Z,5.40
2018-03-07T20:06:43.092Z,5.30
2018-03-07T20:09:10.640Z,5.30
2018-03-07T20:11:38.961Z,5.20
2018-03-07T20:14:06.550Z,5.20
2018-03-07T20:16:34.071Z,5.20
2018-03-07T20:19:01.565Z,5.20
2018-03-07T20:21:29.114Z,5.20
2018-03-07T20:23:56.638Z,5.20
2018-03-07T20:26:24.242Z,5.20
2018-03-07T20:28:51.761Z,5.20
2018-03-07T20:31:19.455Z,5.20
2018-03-07T20:33:47.020Z,5.20
2018-03-07T20:36:14.562Z,5.20
2018-03-07T20:38:42.111Z,5.30
2018-03-07T20:41:09.622Z,5.40
2018-03-07T20:43:37.953Z,5.50
2018-03-07T20:46:05.487Z,5.40
2018-03-07T20:48:33.000Z,5.50
2018-03-07T20:51:00.514Z,5.50
2018-03-07T20:53:28.062Z,5.50
2018-03-07T20:55:55.605Z,5.60
2018-03-07T20:58:23.944Z,5.70
2018-03-07T21:00:51.468Z,5.70
2018-03-07T21:03:18.992Z,5.70
2018-03-07T21:05:47.264Z,5.60
2018-03-07T21:08:15.558Z,5.60
2018-03-07T21:10:43.862Z,5.60
2018-03-07T21:13:11.356Z,5.50
2018-03-07T21:15:38.860Z,5.70
2018-03-07T21:18:06.395Z,5.80
2018-03-07T21:20:34.717Z,5.80
2018-03-07T21:23:02.376Z,5.80
2018-03-07T21:25:29.895Z,5.80
2018-03-07T21:27:58.234Z,5.80
2018-03-07T21:30:25.764Z,5.80
2018-03-07T21:32:53.372Z,5.80
2018-03-07T21:35:20.872Z,5.80
2018-03-07T21:37:48.460Z,5.80
2018-03-07T21:40:15.996Z,5.90
2018-03-07T21:42:43.567Z,5.80
2018-03-07T21:45:11.115Z,5.80
2018-03-07T21:47:38.656Z,5.80
2018-03-07T21:50:06.196Z,5.80
2018-03-07T21:52:33.751Z,5.70
2018-03-07T21:55:01.312Z,5.70
2018-03-07T21:57:28.828Z,5.70
2018-03-07T21:59:56.338Z,5.70
2018-03-07T22:02:23.906Z,5.80
2018-03-07T22:04:52.202Z,5.90
2018-03-07T22:07:19.767Z,5.80
2018-03-07T22:09:47.283Z,5.90
2018-03-07T22:12:14.779Z,6.00
2018-03-07T22:14:42.383Z,6.00
2018-03-07T22:17:09.878Z,6.00
2018-03-07T22:19:38.215Z,6.10
2018-03-07T22:22:05.711Z,6.10
2018-03-07T22:24:34.023Z,6.00
2018-03-07T22:27:01.580Z,6.00
2018-03-07T22:29:29.112Z,6.00
2018-03-07T22:31:57.391Z,5.80
2018-03-07T22:34:25.651Z,5.80
2018-03-07T22:36:53.150Z,5.80
2018-03-07T22:39:20.650Z,5.80
2018-03-07T22:41:48.143Z,5.70
2018-03-07T22:44:16.420Z,5.70
2018-03-07T22:46:44.695Z,5.70
2018-03-07T22:49:12.951Z,5.70
2018-03-07T22:51:40.459Z,5.70
2018-03-07T22:54:07.975Z,5.60
2018-03-07T22:56:35.491Z,5.60
2018-03-07T22:59:03.035Z,5.60
2018-03-07T23:01:30.547Z,5.60
2018-03-07T23:03:58.035Z,5.60
2018-03-07T23:06:25.586Z,5.60
2018-03-07T23:08:53.075Z,5.60
2018-03-07T23:11:20.576Z,5.60
2018-03-07T23:13:48.064Z,5.60
2018-03-07T23:16:16.320Z,5.50
2018-03-07T23:18:43.802Z,5.50
2018-03-07T23:21:11.303Z,5.40
2018-03-07T23:23:38.812Z,5.50
2018-03-07T23:26:07.083Z,5.50
2018-03-07T23:28:35.351Z,5.40
2018-03-07T23:31:03.612Z,5.40
2018-03-07T23:33:31.099Z,5.40
2018-03-07T23:35:59.379Z,5.50
2018-03-07T23:38:26.871Z,5.50
2018-03-07T23:40:54.359Z,5.60
2018-03-07T23:43:21.850Z,5.50
2018-03-07T23:45:50.111Z,5.60
2018-03-07T23:48:18.378Z,5.70
2018-03-07T23:50:45.881Z,5.70
2018-03-07T23:53:13.406Z,5.70
2018-03-07T23:55:41.677Z,5.70
2018-03-07T23:58:09.195Z,5.70
